DLH462 EDDF-KMIA
Flight info
| Callsign | DLH462 |
|---|---|
| Flight time | N/A |
| Altitude | 36000 |
| Route | SOBRA2L/18 SOBRA Y180 DIK UN857 TOLVU/N0470F350 DCT RAPOR DCT GIMER DCT ESTOC UT300 ELCOB/N0474F360 UT300 SENLO UN502 JSY DCT LIZAD DCT GAPLI DCT LIMRI/M083F380 DCT 53N020W 53N030W 53N040W 52N050W DCT TUDEP/N0467F380 N522E ALLEX/N0468F400 DCT FOXBO DCT RIFLE DCT HEADI Q97 KALDA DCT BGBRD Q101 SKARP Y313 HOAGG BNFSH3 |
| Aircraft | B748/H-SDE3FGHIM1M2RWXY/LB1 |
Departure
| Time | 2026-05-05 17:44 |
|---|---|
| Airport | Frankfurt Main Airport (EDDF) |
Arrival
| Time | N/A |
|---|---|
| Airport | Miami International Airport (KMIA) |
| Time | Latitude | Longitude | Altitude | Speed | Heading |
|---|---|---|---|---|---|
| 2026-05-05 16:40 | 50.04758 | 8.56386 | 375 ft | 0 kts | 339° |
| 2026-05-05 17:28 | 50.04755 | 8.56387 | 373 ft | 3 kts | 339° |
| 2026-05-05 17:28 | 50.04731 | 8.56402 | 374 ft | 4 kts | 339° |
| 2026-05-05 17:29 | 50.04706 | 8.56416 | 375 ft | 2 kts | 339° |
| 2026-05-05 17:29 | 50.04686 | 8.56429 | 377 ft | 4 kts | 328° |
| 2026-05-05 17:29 | 50.04672 | 8.56452 | 374 ft | 4 kts | 261° |
| 2026-05-05 17:29 | 50.04671 | 8.56453 | 374 ft | 4 kts | 249° |
| 2026-05-05 17:30 | 50.04661 | 8.56414 | 376 ft | 3 kts | 249° |
| 2026-05-05 17:30 | 50.04660 | 8.56408 | 376 ft | 3 kts | 249° |
| 2026-05-05 17:33 | 50.04660 | 8.56407 | 376 ft | 0 kts | 249° |
| 2026-05-05 17:33 | 50.04657 | 8.56395 | 375 ft | 2 kts | 249° |
| 2026-05-05 17:33 | 50.04648 | 8.56362 | 377 ft | 5 kts | 248° |
| 2026-05-05 17:33 | 50.04633 | 8.56302 | 375 ft | 7 kts | 248° |
| 2026-05-05 17:34 | 50.04611 | 8.56216 | 378 ft | 9 kts | 248° |
| 2026-05-05 17:34 | 50.04586 | 8.56114 | 375 ft | 11 kts | 250° |
| 2026-05-05 17:34 | 50.04557 | 8.56004 | 380 ft | 11 kts | 240° |
| 2026-05-05 17:34 | 50.04518 | 8.55960 | 379 ft | 6 kts | 205° |
| 2026-05-05 17:35 | 50.04477 | 8.55937 | 379 ft | 7 kts | 196° |
| 2026-05-05 17:35 | 50.04430 | 8.55916 | 377 ft | 7 kts | 194° |
| 2026-05-05 17:35 | 50.04382 | 8.55914 | 377 ft | 7 kts | 172° |
| 2026-05-05 17:35 | 50.04332 | 8.55937 | 378 ft | 8 kts | 165° |
| 2026-05-05 17:36 | 50.04280 | 8.55961 | 375 ft | 8 kts | 172° |
| 2026-05-05 17:36 | 50.04245 | 8.55938 | 377 ft | 5 kts | 223° |
| 2026-05-05 17:36 | 50.04222 | 8.55876 | 376 ft | 8 kts | 249° |
| 2026-05-05 17:36 | 50.04203 | 8.55790 | 374 ft | 11 kts | 250° |
| 2026-05-05 17:37 | 50.04172 | 8.55652 | 377 ft | 15 kts | 250° |
| 2026-05-05 17:37 | 50.04144 | 8.55544 | 378 ft | 18 kts | 247° |
| 2026-05-05 17:37 | 50.04078 | 8.55267 | 378 ft | 22 kts | 250° |
| 2026-05-05 17:37 | 50.04026 | 8.55045 | 377 ft | 22 kts | 249° |
| 2026-05-05 17:38 | 50.03973 | 8.54829 | 377 ft | 21 kts | 249° |
| 2026-05-05 17:38 | 50.03921 | 8.54619 | 376 ft | 20 kts | 252° |
| 2026-05-05 17:38 | 50.03872 | 8.54417 | 377 ft | 20 kts | 248° |
| 2026-05-05 17:38 | 50.03805 | 8.54241 | 377 ft | 18 kts | 244° |
| 2026-05-05 17:39 | 50.03759 | 8.54061 | 379 ft | 18 kts | 250° |
| 2026-05-05 17:39 | 50.03717 | 8.53882 | 378 ft | 18 kts | 251° |
| 2026-05-05 17:39 | 50.03675 | 8.53703 | 375 ft | 17 kts | 250° |
| 2026-05-05 17:39 | 50.03630 | 8.53529 | 376 ft | 17 kts | 249° |
| 2026-05-05 17:40 | 50.03589 | 8.53354 | 377 ft | 17 kts | 251° |
| 2026-05-05 17:40 | 50.03550 | 8.53188 | 373 ft | 16 kts | 248° |
| 2026-05-05 17:40 | 50.03512 | 8.53029 | 377 ft | 16 kts | 250° |
| 2026-05-05 17:40 | 50.03474 | 8.52875 | 378 ft | 15 kts | 248° |
| 2026-05-05 17:41 | 50.03443 | 8.52768 | 378 ft | 8 kts | 247° |
| 2026-05-05 17:41 | 50.03441 | 8.52759 | 378 ft | 0 kts | 248° |
| 2026-05-05 17:42 | 50.03437 | 8.52744 | 379 ft | 4 kts | 248° |
| 2026-05-05 17:42 | 50.03423 | 8.52688 | 380 ft | 8 kts | 248° |
| 2026-05-05 17:43 | 50.03398 | 8.52611 | 380 ft | 8 kts | 224° |
| 2026-05-05 17:43 | 50.03340 | 8.52592 | 379 ft | 13 kts | 181° |
| 2026-05-05 17:43 | 50.03197 | 8.52593 | 374 ft | 41 kts | 180° |
| 2026-05-05 17:43 | 50.02603 | 8.52598 | 380 ft | 127 kts | 180° |
| 2026-05-05 17:44 | 50.01489 | 8.52609 | 384 ft | 182 kts | 182° |
| 2026-05-05 17:44 | 50.00074 | 8.52648 | 837 ft | 222 kts | 180° |
| 2026-05-05 17:44 | 49.98416 | 8.52744 | 1473 ft | 250 kts | 179° |
| 2026-05-05 17:44 | 49.96771 | 8.52868 | 2851 ft | 227 kts | 179° |
| 2026-05-05 17:45 | 49.95193 | 8.52979 | 3888 ft | 228 kts | 180° |
| 2026-05-05 17:45 | 49.93531 | 8.53084 | 3994 ft | 243 kts | 179° |
| 2026-05-05 17:45 | 49.91872 | 8.53193 | 3976 ft | 235 kts | 179° |
| 2026-05-05 17:45 | 49.90254 | 8.53302 | 3985 ft | 233 kts | 179° |
| 2026-05-05 17:46 | 49.88641 | 8.53410 | 4504 ft | 231 kts | 179° |
| 2026-05-05 17:46 | 49.87047 | 8.53320 | 5382 ft | 229 kts | 199° |
| 2026-05-05 17:46 | 49.85520 | 8.52479 | 6069 ft | 240 kts | 201° |
| 2026-05-05 17:46 | 49.83903 | 8.51544 | 6603 ft | 256 kts | 201° |
| 2026-05-05 17:47 | 49.82206 | 8.50578 | 7276 ft | 263 kts | 201° |
| 2026-05-05 17:47 | 49.80490 | 8.49616 | 8029 ft | 268 kts | 201° |
| 2026-05-05 17:47 | 49.78736 | 8.48612 | 8788 ft | 271 kts | 206° |
| 2026-05-05 17:47 | 49.77221 | 8.46910 | 9535 ft | 272 kts | 229° |
| 2026-05-05 17:48 | 49.76252 | 8.44407 | 10220 ft | 276 kts | 251° |
| 2026-05-05 17:48 | 49.75999 | 8.41423 | 10722 ft | 289 kts | 274° |
| 2026-05-05 17:48 | 49.76376 | 8.38491 | 11077 ft | 305 kts | 281° |
| 2026-05-05 17:48 | 49.76914 | 8.35210 | 11409 ft | 323 kts | 282° |
| 2026-05-05 17:49 | 49.77485 | 8.31838 | 11966 ft | 333 kts | 282° |
| 2026-05-05 17:49 | 49.78053 | 8.28325 | 12680 ft | 339 kts | 282° |
| 2026-05-05 17:49 | 49.78617 | 8.24758 | 13442 ft | 344 kts | 282° |
| 2026-05-05 17:49 | 49.79195 | 8.21140 | 14153 ft | 349 kts | 282° |
| 2026-05-05 17:50 | 49.79786 | 8.17474 | 14814 ft | 354 kts | 282° |
| 2026-05-05 17:50 | 49.80382 | 8.13750 | 15464 ft | 359 kts | 281° |
| 2026-05-05 17:50 | 49.80982 | 8.09973 | 16104 ft | 364 kts | 281° |
| 2026-05-05 17:50 | 49.81591 | 8.06144 | 16752 ft | 369 kts | 282° |
| 2026-05-05 17:51 | 49.82208 | 8.02264 | 17406 ft | 374 kts | 282° |
| 2026-05-05 17:51 | 49.82828 | 7.98328 | 18058 ft | 379 kts | 282° |
| 2026-05-05 17:51 | 49.83460 | 7.94342 | 18639 ft | 383 kts | 282° |
| 2026-05-05 17:51 | 49.84098 | 7.90307 | 19189 ft | 387 kts | 282° |
| 2026-05-05 17:52 | 49.84726 | 7.86286 | 19763 ft | 391 kts | 282° |
| 2026-05-05 17:52 | 49.85372 | 7.82164 | 20342 ft | 395 kts | 282° |
| 2026-05-05 17:52 | 49.86022 | 7.78009 | 20903 ft | 399 kts | 281° |
| 2026-05-05 17:52 | 49.86677 | 7.73802 | 21463 ft | 403 kts | 282° |
| 2026-05-05 17:53 | 49.87338 | 7.69551 | 22006 ft | 407 kts | 282° |
| 2026-05-05 17:53 | 49.88005 | 7.65266 | 22531 ft | 411 kts | 282° |
| 2026-05-05 17:53 | 49.88676 | 7.60932 | 23044 ft | 415 kts | 282° |
| 2026-05-05 17:53 | 49.89349 | 7.56563 | 23512 ft | 419 kts | 281° |
| 2026-05-05 17:54 | 49.90029 | 7.52142 | 23915 ft | 423 kts | 282° |
| 2026-05-05 17:54 | 49.90703 | 7.47750 | 24307 ft | 426 kts | 281° |
| 2026-05-05 17:54 | 49.91390 | 7.43262 | 24689 ft | 429 kts | 281° |
| 2026-05-05 17:54 | 49.92080 | 7.38742 | 25073 ft | 433 kts | 281° |
| 2026-05-05 17:55 | 49.92775 | 7.34174 | 25457 ft | 436 kts | 281° |
| 2026-05-05 17:55 | 49.93472 | 7.29578 | 25822 ft | 439 kts | 281° |
| 2026-05-05 17:55 | 49.94173 | 7.24941 | 26210 ft | 443 kts | 282° |
| 2026-05-05 17:55 | 49.94878 | 7.20269 | 26569 ft | 446 kts | 282° |
| 2026-05-05 17:56 | 49.95586 | 7.15570 | 26929 ft | 449 kts | 281° |
| 2026-05-05 17:56 | 49.96295 | 7.10838 | 27285 ft | 452 kts | 281° |
| 2026-05-05 17:56 | 49.97010 | 7.06049 | 27634 ft | 455 kts | 281° |
| 2026-05-05 17:56 | 49.97725 | 7.01252 | 27987 ft | 458 kts | 281° |
| 2026-05-05 17:57 | 49.98435 | 6.96475 | 28322 ft | 461 kts | 281° |
| 2026-05-05 17:57 | 49.99107 | 6.91581 | 28670 ft | 463 kts | 275° |
| 2026-05-05 17:57 | 49.99228 | 6.86599 | 29056 ft | 462 kts | 266° |
| 2026-05-05 17:57 | 49.99084 | 6.81598 | 29435 ft | 465 kts | 265° |
| 2026-05-05 17:58 | 49.98917 | 6.76569 | 29769 ft | 467 kts | 265° |
| 2026-05-05 17:58 | 49.98618 | 6.66483 | 29806 ft | 466 kts | 265° |
| 2026-05-05 17:59 | 49.98097 | 6.56541 | 29825 ft | 463 kts | 254° |
| 2026-05-05 17:59 | 49.95824 | 6.47252 | 29810 ft | 460 kts | 244° |
| 2026-05-05 17:59 | 49.94528 | 6.42696 | 30027 ft | 463 kts | 244° |
| 2026-05-05 18:00 | 49.93229 | 6.38100 | 30351 ft | 466 kts | 244° |
| 2026-05-05 18:00 | 49.91938 | 6.33474 | 30685 ft | 469 kts | 244° |
| 2026-05-05 18:00 | 49.90636 | 6.28825 | 30980 ft | 471 kts | 244° |
| 2026-05-05 18:00 | 49.89240 | 6.24228 | 31263 ft | 472 kts | 244° |
| 2026-05-05 18:01 | 49.87971 | 6.19515 | 31558 ft | 475 kts | 244° |
| 2026-05-05 18:01 | 49.86674 | 6.14871 | 31804 ft | 476 kts | 241° |
| 2026-05-05 18:01 | 49.85007 | 6.10474 | 32114 ft | 473 kts | 232° |
| 2026-05-05 18:01 | 49.83228 | 6.06607 | 32357 ft | 474 kts | 231° |
| 2026-05-05 18:02 | 49.81295 | 6.02457 | 32614 ft | 476 kts | 231° |
| 2026-05-05 18:02 | 49.79368 | 5.98274 | 32868 ft | 479 kts | 232° |
| 2026-05-05 18:02 | 49.77442 | 5.94061 | 33114 ft | 481 kts | 231° |
| 2026-05-05 18:02 | 49.75500 | 5.89837 | 33336 ft | 482 kts | 233° |
| 2026-05-05 18:03 | 49.73840 | 5.85304 | 33622 ft | 488 kts | 244° |
| 2026-05-05 18:03 | 49.72634 | 5.80397 | 33869 ft | 492 kts | 247° |
| 2026-05-05 18:03 | 49.71476 | 5.75396 | 34052 ft | 494 kts | 248° |
| 2026-05-05 18:03 | 49.70342 | 5.70455 | 34255 ft | 495 kts | 248° |
| 2026-05-05 18:04 | 49.69175 | 5.65439 | 34470 ft | 497 kts | 247° |
| 2026-05-05 18:04 | 49.67996 | 5.60429 | 34728 ft | 497 kts | 247° |
| 2026-05-05 18:04 | 49.66820 | 5.55417 | 35069 ft | 496 kts | 248° |
| 2026-05-05 18:04 | 49.65651 | 5.50412 | 35421 ft | 495 kts | 248° |
| 2026-05-05 18:05 | 49.64481 | 5.45432 | 35754 ft | 492 kts | 248° |
| 2026-05-05 18:05 | 49.62545 | 5.37225 | 35802 ft | 489 kts | 249° |
| 2026-05-05 18:06 | 49.60084 | 5.25702 | 35800 ft | 485 kts | 249° |
| 2026-05-05 18:06 | 49.58172 | 5.15754 | 35807 ft | 485 kts | 253° |
| 2026-05-05 18:07 | 49.56686 | 5.07428 | 35807 ft | 485 kts | 252° |
| 2026-05-05 18:07 | 49.54899 | 4.97406 | 35799 ft | 485 kts | 252° |
| 2026-05-05 18:08 | 49.53108 | 4.87370 | 35809 ft | 488 kts | 252° |
| 2026-05-05 18:08 | 49.51295 | 4.77313 | 35804 ft | 488 kts | 252° |
| 2026-05-05 18:09 | 49.49482 | 4.67274 | 35806 ft | 488 kts | 252° |
| 2026-05-05 18:09 | 49.47659 | 4.57293 | 35805 ft | 488 kts | 252° |
| 2026-05-05 18:10 | 49.45829 | 4.47258 | 35808 ft | 488 kts | 252° |
| 2026-05-05 18:10 | 49.43977 | 4.37219 | 35795 ft | 489 kts | 252° |
| 2026-05-05 18:11 | 49.42124 | 4.27183 | 35796 ft | 488 kts | 252° |
| 2026-05-05 18:11 | 49.40257 | 4.17148 | 35797 ft | 488 kts | 252° |
| 2026-05-05 18:12 | 49.38394 | 4.07191 | 35806 ft | 489 kts | 252° |
| 2026-05-05 18:12 | 49.36525 | 3.97174 | 35804 ft | 489 kts | 255° |
| 2026-05-05 18:13 | 49.35071 | 3.86967 | 35800 ft | 490 kts | 255° |
| 2026-05-05 18:13 | 49.33604 | 3.76767 | 35801 ft | 490 kts | 255° |
| 2026-05-05 18:14 | 49.32145 | 3.66635 | 35809 ft | 490 kts | 255° |
| 2026-05-05 18:14 | 49.30665 | 3.56451 | 35807 ft | 490 kts | 255° |
| 2026-05-05 18:15 | 49.29174 | 3.46255 | 35813 ft | 491 kts | 255° |
| 2026-05-05 18:15 | 49.27672 | 3.36051 | 35814 ft | 491 kts | 255° |
| 2026-05-05 18:16 | 49.26164 | 3.25872 | 35822 ft | 491 kts | 255° |
| 2026-05-05 18:16 | 49.24644 | 3.15683 | 35824 ft | 491 kts | 255° |
| 2026-05-05 18:17 | 49.23127 | 3.05568 | 35826 ft | 493 kts | 255° |
| 2026-05-05 18:17 | 49.21584 | 2.95363 | 35822 ft | 492 kts | 255° |
| 2026-05-05 18:18 | 49.20037 | 2.85178 | 35824 ft | 492 kts | 255° |
| 2026-05-05 18:18 | 49.18486 | 2.75049 | 35836 ft | 492 kts | 255° |
| 2026-05-05 18:19 | 49.16920 | 2.64879 | 35850 ft | 492 kts | 255° |
| 2026-05-05 18:19 | 49.15341 | 2.54687 | 35834 ft | 493 kts | 255° |
| 2026-05-05 18:20 | 49.13752 | 2.44489 | 35835 ft | 493 kts | 255° |
| 2026-05-05 18:20 | 49.12449 | 2.34204 | 35831 ft | 495 kts | 260° |
| 2026-05-05 18:21 | 49.11525 | 2.23796 | 35837 ft | 495 kts | 260° |
| 2026-05-05 18:21 | 49.10536 | 2.13479 | 35819 ft | 494 kts | 260° |
| 2026-05-05 18:22 | 49.09575 | 2.03087 | 35818 ft | 495 kts | 263° |
| 2026-05-05 18:22 | 49.08787 | 1.92662 | 35822 ft | 495 kts | 261° |
| 2026-05-05 18:23 | 49.07973 | 1.82237 | 35834 ft | 495 kts | 262° |
| 2026-05-05 18:23 | 49.07179 | 1.71866 | 35839 ft | 495 kts | 261° |
| 2026-05-05 18:24 | 49.06350 | 1.61455 | 35845 ft | 495 kts | 262° |
| 2026-05-05 18:24 | 49.05528 | 1.51039 | 35856 ft | 495 kts | 262° |
| 2026-05-05 18:25 | 49.04685 | 1.40619 | 35861 ft | 495 kts | 261° |
| 2026-05-05 18:25 | 49.03840 | 1.30211 | 35864 ft | 495 kts | 261° |
| 2026-05-05 18:26 | 49.03235 | 1.19783 | 35890 ft | 498 kts | 271° |
| 2026-05-05 18:26 | 49.03573 | 1.09303 | 35861 ft | 498 kts | 271° |
| 2026-05-05 18:27 | 49.03891 | 0.98763 | 35866 ft | 498 kts | 271° |
| 2026-05-05 18:27 | 49.04199 | 0.88211 | 35873 ft | 498 kts | 271° |
| 2026-05-05 18:28 | 49.04676 | 0.71259 | 35873 ft | 498 kts | 271° |
| 2026-05-05 18:28 | 49.04963 | 0.60703 | 35878 ft | 498 kts | 271° |
| 2026-05-05 18:29 | 49.05238 | 0.50159 | 35888 ft | 498 kts | 271° |
| 2026-05-05 18:29 | 49.05501 | 0.39686 | 35885 ft | 497 kts | 271° |
| 2026-05-05 18:30 | 49.05757 | 0.29151 | 35887 ft | 498 kts | 270° |
| 2026-05-05 18:30 | 49.06002 | 0.18601 | 35891 ft | 497 kts | 270° |
| 2026-05-05 18:31 | 49.06239 | 0.08075 | 35897 ft | 497 kts | 270° |
| 2026-05-05 18:31 | 49.06465 | -0.02477 | 35908 ft | 497 kts | 270° |
| 2026-05-05 18:32 | 49.06682 | -0.12947 | 35908 ft | 497 kts | 270° |
| 2026-05-05 18:32 | 49.06888 | -0.23458 | 35909 ft | 495 kts | 270° |
| 2026-05-05 18:33 | 49.07087 | -0.33949 | 35905 ft | 495 kts | 270° |
| 2026-05-05 18:33 | 49.07276 | -0.44450 | 35908 ft | 495 kts | 270° |
| 2026-05-05 18:34 | 49.07456 | -0.54942 | 35915 ft | 495 kts | 270° |
| 2026-05-05 18:34 | 49.07625 | -0.65369 | 35917 ft | 495 kts | 270° |
| 2026-05-05 18:35 | 49.07787 | -0.75871 | 35911 ft | 496 kts | 270° |
| 2026-05-05 18:35 | 49.07938 | -0.86373 | 35909 ft | 495 kts | 270° |
| 2026-05-05 18:36 | 49.08079 | -0.96800 | 35918 ft | 494 kts | 270° |
| 2026-05-05 18:36 | 49.08211 | -1.07268 | 35915 ft | 494 kts | 270° |
| 2026-05-05 18:37 | 49.08434 | -1.17743 | 35925 ft | 494 kts | 278° |
| 2026-05-05 18:37 | 49.09971 | -1.27982 | 35932 ft | 496 kts | 283° |
| 2026-05-05 18:38 | 49.11642 | -1.38193 | 35927 ft | 495 kts | 283° |
| 2026-05-05 18:38 | 49.13256 | -1.48350 | 35933 ft | 496 kts | 283° |
| 2026-05-05 18:39 | 49.14896 | -1.58561 | 35932 ft | 495 kts | 283° |
| 2026-05-05 18:39 | 49.16509 | -1.68783 | 35934 ft | 495 kts | 283° |
| 2026-05-05 18:40 | 49.18124 | -1.79010 | 35938 ft | 496 kts | 283° |
| 2026-05-05 18:40 | 49.19728 | -1.89268 | 35946 ft | 495 kts | 283° |
| 2026-05-05 18:41 | 49.21310 | -1.99428 | 35949 ft | 496 kts | 282° |
| 2026-05-05 18:41 | 49.23017 | -2.09657 | 35936 ft | 497 kts | 284° |
| 2026-05-05 18:42 | 49.24720 | -2.19880 | 35944 ft | 495 kts | 284° |
| 2026-05-05 18:42 | 49.26480 | -2.30021 | 35948 ft | 491 kts | 284° |
| 2026-05-05 18:43 | 49.28170 | -2.40059 | 35945 ft | 490 kts | 284° |
| 2026-05-05 18:43 | 49.29878 | -2.50138 | 35943 ft | 488 kts | 284° |
| 2026-05-05 18:44 | 49.31565 | -2.60201 | 35943 ft | 488 kts | 284° |
| 2026-05-05 18:44 | 49.33245 | -2.70275 | 35940 ft | 487 kts | 284° |
| 2026-05-05 18:45 | 49.34909 | -2.80299 | 35938 ft | 485 kts | 284° |
| 2026-05-05 18:45 | 49.36548 | -2.90245 | 35949 ft | 484 kts | 284° |
| 2026-05-05 18:46 | 49.38193 | -3.00274 | 35956 ft | 485 kts | 284° |
| 2026-05-05 18:46 | 49.39826 | -3.10299 | 35956 ft | 485 kts | 284° |
| 2026-05-05 18:47 | 49.41450 | -3.20328 | 35951 ft | 483 kts | 284° |
| 2026-05-05 18:47 | 49.43052 | -3.30277 | 35955 ft | 483 kts | 284° |
| 2026-05-05 18:48 | 49.44657 | -3.40304 | 35964 ft | 483 kts | 284° |
| 2026-05-05 18:48 | 49.46253 | -3.50338 | 35964 ft | 483 kts | 284° |
| 2026-05-05 18:49 | 49.47572 | -3.58677 | 35957 ft | 482 kts | 283° |
| 2026-05-05 18:49 | 49.49404 | -3.70327 | 35958 ft | 482 kts | 283° |
| 2026-05-05 18:50 | 49.50971 | -3.80362 | 35965 ft | 483 kts | 283° |
| 2026-05-05 18:50 | 49.52267 | -3.88708 | 35965 ft | 483 kts | 283° |
| 2026-05-05 18:51 | 49.53820 | -3.98766 | 35972 ft | 483 kts | 283° |
| 2026-05-05 18:51 | 49.55613 | -4.10458 | 35975 ft | 483 kts | 283° |
| 2026-05-05 18:52 | 49.56898 | -4.18886 | 35984 ft | 483 kts | 283° |
| 2026-05-05 18:52 | 49.58414 | -4.28892 | 35976 ft | 483 kts | 283° |
| 2026-05-05 18:53 | 49.59777 | -4.39031 | 35988 ft | 483 kts | 281° |
| 2026-05-05 18:53 | 49.61116 | -4.49172 | 35991 ft | 483 kts | 281° |
| 2026-05-05 18:54 | 49.62375 | -4.59327 | 35995 ft | 482 kts | 281° |
| 2026-05-05 18:54 | 49.63664 | -4.69489 | 36002 ft | 482 kts | 281° |
| 2026-05-05 18:55 | 49.64915 | -4.79581 | 35998 ft | 482 kts | 281° |
| 2026-05-05 18:55 | 49.66172 | -4.89723 | 35991 ft | 481 kts | 281° |
| 2026-05-05 18:56 | 49.67418 | -4.99881 | 36000 ft | 481 kts | 281° |
| 2026-05-05 18:56 | 49.68650 | -5.09996 | 35995 ft | 479 kts | 281° |
| 2026-05-05 18:57 | 49.69866 | -5.20053 | 36005 ft | 480 kts | 281° |
| 2026-05-05 18:57 | 49.71081 | -5.30184 | 36012 ft | 480 kts | 281° |
| 2026-05-05 18:58 | 49.72286 | -5.40306 | 36008 ft | 480 kts | 281° |
| 2026-05-05 18:58 | 49.73485 | -5.50464 | 36013 ft | 481 kts | 281° |
| 2026-05-05 18:59 | 49.74675 | -5.60620 | 36021 ft | 480 kts | 281° |
| 2026-05-05 18:59 | 49.75848 | -5.70707 | 36026 ft | 481 kts | 281° |
| 2026-05-05 19:00 | 49.77021 | -5.80896 | 36034 ft | 480 kts | 281° |
| 2026-05-05 19:00 | 49.78185 | -5.91068 | 36037 ft | 479 kts | 282° |
| 2026-05-05 19:01 | 49.79343 | -6.01263 | 36047 ft | 481 kts | 281° |
| 2026-05-05 19:01 | 49.80483 | -6.11405 | 36050 ft | 481 kts | 281° |
| 2026-05-05 19:02 | 49.81625 | -6.21624 | 36058 ft | 482 kts | 281° |
| 2026-05-05 19:02 | 49.82755 | -6.31853 | 36058 ft | 482 kts | 281° |
| 2026-05-05 19:03 | 49.83870 | -6.42010 | 36051 ft | 481 kts | 281° |
| 2026-05-05 19:03 | 49.84981 | -6.52222 | 36048 ft | 481 kts | 281° |
| 2026-05-05 19:04 | 49.86083 | -6.62443 | 36041 ft | 481 kts | 281° |
| 2026-05-05 19:04 | 49.87177 | -6.72669 | 36047 ft | 481 kts | 281° |
| 2026-05-05 19:05 | 49.88256 | -6.82843 | 36041 ft | 481 kts | 280° |
| 2026-05-05 19:05 | 49.89325 | -6.93030 | 36049 ft | 477 kts | 281° |
| 2026-05-05 19:06 | 49.90380 | -7.03150 | 36042 ft | 476 kts | 280° |
| 2026-05-05 19:06 | 49.91428 | -7.13299 | 36044 ft | 476 kts | 280° |
| 2026-05-05 19:07 | 49.92465 | -7.23437 | 36042 ft | 476 kts | 280° |
| 2026-05-05 19:07 | 49.93494 | -7.33579 | 36050 ft | 474 kts | 280° |
| 2026-05-05 19:08 | 49.94504 | -7.43631 | 36053 ft | 474 kts | 280° |
| 2026-05-05 19:08 | 49.95511 | -7.53733 | 36057 ft | 473 kts | 279° |
| 2026-05-05 19:09 | 49.96507 | -7.63831 | 36054 ft | 473 kts | 279° |
| 2026-05-05 19:09 | 49.97495 | -7.73935 | 36057 ft | 473 kts | 279° |
| 2026-05-05 19:10 | 49.98467 | -7.83967 | 36054 ft | 473 kts | 279° |
| 2026-05-05 19:10 | 49.99437 | -7.94071 | 36054 ft | 473 kts | 279° |
| 2026-05-05 19:11 | 50.01262 | -8.03824 | 36082 ft | 471 kts | 297° |
| 2026-05-05 19:11 | 50.04215 | -8.12847 | 36073 ft | 472 kts | 297° |
| 2026-05-05 19:12 | 50.07191 | -8.21930 | 36075 ft | 471 kts | 297° |
| 2026-05-05 19:12 | 50.10151 | -8.31037 | 36071 ft | 471 kts | 297° |
| 2026-05-05 19:13 | 50.13106 | -8.40132 | 36079 ft | 470 kts | 297° |
| 2026-05-05 19:13 | 50.16048 | -8.49240 | 36080 ft | 470 kts | 297° |
| 2026-05-05 19:14 | 50.18968 | -8.58299 | 36079 ft | 470 kts | 297° |
| 2026-05-05 19:14 | 50.21899 | -8.67437 | 36082 ft | 470 kts | 297° |
| 2026-05-05 19:15 | 50.24823 | -8.76579 | 36079 ft | 471 kts | 296° |
| 2026-05-05 19:15 | 50.27737 | -8.85728 | 36081 ft | 470 kts | 296° |
| 2026-05-05 19:16 | 50.30626 | -8.94829 | 36082 ft | 470 kts | 296° |
| 2026-05-05 19:16 | 50.33527 | -9.04004 | 36082 ft | 470 kts | 296° |
| 2026-05-05 19:17 | 50.36418 | -9.13178 | 36086 ft | 470 kts | 296° |
| 2026-05-05 19:17 | 50.39302 | -9.22366 | 36086 ft | 470 kts | 296° |
| 2026-05-05 19:18 | 50.42182 | -9.31576 | 36081 ft | 470 kts | 296° |
| 2026-05-05 19:18 | 50.45026 | -9.40705 | 36085 ft | 469 kts | 296° |
| 2026-05-05 19:19 | 50.47885 | -9.49914 | 36084 ft | 469 kts | 296° |
| 2026-05-05 19:19 | 50.50736 | -9.59135 | 36088 ft | 469 kts | 296° |
| 2026-05-05 19:20 | 50.53574 | -9.68345 | 36091 ft | 468 kts | 296° |
| 2026-05-05 19:20 | 50.56385 | -9.77504 | 36092 ft | 469 kts | 296° |
| 2026-05-05 19:21 | 50.59211 | -9.86746 | 36093 ft | 468 kts | 296° |
| 2026-05-05 19:21 | 50.62024 | -9.95981 | 36097 ft | 468 kts | 296° |
| 2026-05-05 19:22 | 50.64831 | -10.05231 | 36095 ft | 468 kts | 296° |
| 2026-05-05 19:22 | 50.67614 | -10.14437 | 36098 ft | 469 kts | 296° |
| 2026-05-05 19:23 | 50.70408 | -10.23716 | 36098 ft | 468 kts | 295° |
| 2026-05-05 19:23 | 50.73197 | -10.33012 | 36099 ft | 469 kts | 295° |
| 2026-05-05 19:24 | 50.75977 | -10.42314 | 36094 ft | 469 kts | 295° |
| 2026-05-05 19:24 | 50.78731 | -10.51564 | 36096 ft | 469 kts | 295° |
| 2026-05-05 19:25 | 50.81496 | -10.60888 | 36101 ft | 468 kts | 295° |
| 2026-05-05 19:25 | 50.84252 | -10.70218 | 36104 ft | 468 kts | 295° |
| 2026-05-05 19:26 | 50.86999 | -10.79552 | 36109 ft | 468 kts | 295° |
| 2026-05-05 19:26 | 50.89719 | -10.88830 | 36107 ft | 467 kts | 295° |
| 2026-05-05 19:27 | 50.92445 | -10.98166 | 36109 ft | 468 kts | 295° |
| 2026-05-05 19:27 | 50.95165 | -11.07517 | 36108 ft | 467 kts | 295° |
| 2026-05-05 19:28 | 50.97858 | -11.16815 | 36112 ft | 467 kts | 295° |
| 2026-05-05 19:28 | 51.00567 | -11.26196 | 36119 ft | 468 kts | 295° |
| 2026-05-05 19:29 | 51.03265 | -11.35588 | 36116 ft | 466 kts | 294° |
| 2026-05-05 19:29 | 51.05949 | -11.44958 | 36119 ft | 466 kts | 294° |
| 2026-05-05 19:30 | 51.08627 | -11.54353 | 36122 ft | 466 kts | 294° |
| 2026-05-05 19:30 | 51.11276 | -11.63677 | 36126 ft | 466 kts | 294° |
| 2026-05-05 19:31 | 51.13935 | -11.73074 | 36125 ft | 466 kts | 294° |
| 2026-05-05 19:31 | 51.16591 | -11.82499 | 36127 ft | 466 kts | 294° |
| 2026-05-05 19:32 | 51.19238 | -11.91929 | 36131 ft | 466 kts | 294° |
| 2026-05-05 19:32 | 51.21861 | -12.01311 | 36127 ft | 466 kts | 294° |
| 2026-05-05 19:33 | 51.24489 | -12.10752 | 36130 ft | 466 kts | 294° |
| 2026-05-05 19:33 | 51.27113 | -12.20212 | 36129 ft | 466 kts | 294° |
| 2026-05-05 19:34 | 51.29726 | -12.29675 | 36131 ft | 466 kts | 293° |
| 2026-05-05 19:35 | 51.33635 | -12.43901 | 36139 ft | 466 kts | 293° |
| 2026-05-05 19:35 | 51.36214 | -12.53332 | 36142 ft | 466 kts | 293° |
| 2026-05-05 19:36 | 51.38799 | -12.62826 | 36148 ft | 465 kts | 293° |
| 2026-05-05 19:36 | 51.41375 | -12.72325 | 36150 ft | 465 kts | 293° |
| 2026-05-05 19:37 | 51.43945 | -12.81842 | 36152 ft | 465 kts | 292° |
| 2026-05-05 19:37 | 51.46489 | -12.91300 | 36154 ft | 465 kts | 292° |
| 2026-05-05 19:38 | 51.49041 | -13.00830 | 36156 ft | 465 kts | 292° |
| 2026-05-05 19:38 | 51.51589 | -13.10383 | 36149 ft | 465 kts | 292° |
| 2026-05-05 19:39 | 51.54110 | -13.19874 | 36165 ft | 465 kts | 292° |
| 2026-05-05 19:39 | 51.56638 | -13.29428 | 36161 ft | 465 kts | 292° |
| 2026-05-05 19:40 | 51.59157 | -13.38991 | 36160 ft | 465 kts | 292° |
| 2026-05-05 19:40 | 51.61670 | -13.48573 | 36161 ft | 465 kts | 292° |
| 2026-05-05 19:41 | 51.64173 | -13.58155 | 36161 ft | 465 kts | 292° |
| 2026-05-05 19:41 | 51.66652 | -13.67684 | 36163 ft | 463 kts | 292° |
| 2026-05-05 19:42 | 51.69127 | -13.77242 | 36158 ft | 462 kts | 292° |
| 2026-05-05 19:42 | 51.71595 | -13.86811 | 36165 ft | 462 kts | 292° |
| 2026-05-05 19:43 | 51.74034 | -13.96306 | 36163 ft | 462 kts | 291° |
| 2026-05-05 19:43 | 51.76485 | -14.05889 | 36161 ft | 462 kts | 291° |
| 2026-05-05 19:44 | 51.78927 | -14.15477 | 36165 ft | 462 kts | 291° |
| 2026-05-05 19:44 | 51.81363 | -14.25087 | 36163 ft | 462 kts | 291° |
| 2026-05-05 19:45 | 51.83776 | -14.34642 | 36166 ft | 462 kts | 291° |
| 2026-05-05 19:45 | 51.86196 | -14.44271 | 36166 ft | 462 kts | 291° |
| 2026-05-05 19:46 | 51.88611 | -14.53917 | 36160 ft | 462 kts | 291° |
| 2026-05-05 19:46 | 51.91016 | -14.63565 | 36168 ft | 462 kts | 291° |
| 2026-05-05 19:47 | 51.93411 | -14.73220 | 36162 ft | 462 kts | 291° |
| 2026-05-05 19:47 | 51.95784 | -14.82821 | 36159 ft | 462 kts | 291° |
| 2026-05-05 19:48 | 51.98165 | -14.92503 | 36179 ft | 462 kts | 291° |
| 2026-05-05 19:48 | 52.00340 | -15.02312 | 36185 ft | 462 kts | 283° |
| 2026-05-05 19:49 | 52.01804 | -15.12475 | 36178 ft | 462 kts | 283° |
| 2026-05-05 19:49 | 52.03252 | -15.22570 | 36167 ft | 462 kts | 283° |
| 2026-05-05 19:50 | 52.04701 | -15.32731 | 36168 ft | 462 kts | 283° |
| 2026-05-05 19:50 | 52.06138 | -15.42893 | 36164 ft | 462 kts | 283° |
| 2026-05-05 19:51 | 52.07571 | -15.53079 | 36179 ft | 462 kts | 283° |
| 2026-05-05 19:51 | 52.08982 | -15.63191 | 36178 ft | 462 kts | 283° |
| 2026-05-05 19:52 | 52.10395 | -15.73380 | 36178 ft | 462 kts | 283° |
| 2026-05-05 19:52 | 52.11802 | -15.83586 | 36553 ft | 463 kts | 283° |
| 2026-05-05 19:52 | 52.12503 | -15.88707 | 36841 ft | 463 kts | 283° |
| 2026-05-05 19:53 | 52.13202 | -15.93826 | 37109 ft | 464 kts | 283° |
| 2026-05-05 19:53 | 52.13890 | -15.98888 | 37353 ft | 465 kts | 283° |
| 2026-05-05 19:53 | 52.14589 | -16.04034 | 37591 ft | 467 kts | 283° |
| 2026-05-05 19:53 | 52.15288 | -16.09211 | 37857 ft | 468 kts | 283° |
| 2026-05-05 19:54 | 52.15985 | -16.14387 | 38086 ft | 469 kts | 283° |
| 2026-05-05 19:54 | 52.17371 | -16.24737 | 38174 ft | 466 kts | 283° |
| 2026-05-05 19:55 | 52.18740 | -16.35035 | 38183 ft | 464 kts | 283° |
| 2026-05-05 19:55 | 52.20089 | -16.45249 | 38177 ft | 464 kts | 283° |
| 2026-05-05 19:56 | 52.21439 | -16.55550 | 38179 ft | 465 kts | 283° |
| 2026-05-05 19:56 | 52.22781 | -16.65864 | 38188 ft | 465 kts | 282° |
| 2026-05-05 19:57 | 52.24116 | -16.76202 | 38185 ft | 465 kts | 282° |
| 2026-05-05 19:57 | 52.25432 | -16.86459 | 38189 ft | 465 kts | 282° |
| 2026-05-05 19:58 | 52.26749 | -16.96807 | 38185 ft | 465 kts | 282° |
| 2026-05-05 19:58 | 52.28057 | -17.07163 | 38197 ft | 466 kts | 282° |
| 2026-05-05 19:59 | 52.29357 | -17.17530 | 38193 ft | 466 kts | 282° |
| 2026-05-05 19:59 | 52.30650 | -17.27928 | 38197 ft | 467 kts | 282° |
| 2026-05-05 20:00 | 52.31925 | -17.38247 | 38199 ft | 467 kts | 282° |
| 2026-05-05 20:00 | 52.33200 | -17.48654 | 38201 ft | 467 kts | 282° |
| 2026-05-05 20:01 | 52.34465 | -17.59058 | 38208 ft | 467 kts | 282° |
| 2026-05-05 20:01 | 52.35723 | -17.69483 | 38196 ft | 467 kts | 282° |
| 2026-05-05 20:02 | 52.36963 | -17.79847 | 38200 ft | 467 kts | 282° |
| 2026-05-05 20:02 | 52.38204 | -17.90294 | 38205 ft | 468 kts | 282° |
| 2026-05-05 20:03 | 52.39437 | -18.00760 | 38211 ft | 468 kts | 282° |
| 2026-05-05 20:03 | 52.40652 | -18.11165 | 38209 ft | 468 kts | 282° |
| 2026-05-05 20:04 | 52.41867 | -18.21645 | 38209 ft | 469 kts | 282° |
| 2026-05-05 20:04 | 52.43072 | -18.32127 | 38210 ft | 469 kts | 282° |
| 2026-05-05 20:05 | 52.44270 | -18.42631 | 38216 ft | 469 kts | 282° |
| 2026-05-05 20:05 | 52.45458 | -18.53138 | 38216 ft | 469 kts | 282° |
| 2026-05-05 20:06 | 52.46629 | -18.63586 | 38220 ft | 469 kts | 281° |
| 2026-05-05 20:06 | 52.47799 | -18.74104 | 38203 ft | 469 kts | 281° |
| 2026-05-05 20:07 | 52.48960 | -18.84644 | 38224 ft | 469 kts | 282° |
| 2026-05-05 20:07 | 52.50105 | -18.95119 | 38227 ft | 470 kts | 282° |
| 2026-05-05 20:08 | 52.51248 | -19.05667 | 38230 ft | 470 kts | 282° |
| 2026-05-05 20:08 | 52.52384 | -19.16243 | 38232 ft | 470 kts | 281° |
| 2026-05-05 20:09 | 52.53505 | -19.26774 | 38232 ft | 470 kts | 281° |
| 2026-05-05 20:09 | 52.54623 | -19.37371 | 38230 ft | 471 kts | 282° |
| 2026-05-05 20:10 | 52.55724 | -19.47896 | 38229 ft | 471 kts | 281° |
| 2026-05-05 20:10 | 52.56823 | -19.58501 | 38232 ft | 471 kts | 281° |
| 2026-05-05 20:11 | 52.57912 | -19.69113 | 38233 ft | 471 kts | 281° |
| 2026-05-05 20:11 | 52.58993 | -19.79735 | 38244 ft | 471 kts | 281° |
| 2026-05-05 20:12 | 52.60056 | -19.90285 | 38225 ft | 471 kts | 281° |
| 2026-05-05 20:12 | 52.61118 | -20.00913 | 38227 ft | 471 kts | 281° |
| 2026-05-05 20:13 | 52.62170 | -20.11553 | 38230 ft | 471 kts | 281° |
| 2026-05-05 20:13 | 52.63213 | -20.22196 | 38230 ft | 471 kts | 281° |
| 2026-05-05 20:14 | 52.64239 | -20.32768 | 38225 ft | 471 kts | 281° |
| 2026-05-05 20:14 | 52.65263 | -20.43427 | 38229 ft | 471 kts | 281° |
| 2026-05-05 20:15 | 52.66276 | -20.54076 | 38227 ft | 471 kts | 281° |
| 2026-05-05 20:15 | 52.67280 | -20.64732 | 38228 ft | 471 kts | 281° |
| 2026-05-05 20:16 | 52.68268 | -20.75330 | 38231 ft | 471 kts | 281° |
| 2026-05-05 20:16 | 52.69254 | -20.85999 | 38231 ft | 471 kts | 281° |
| 2026-05-05 20:17 | 52.70230 | -20.96678 | 38237 ft | 471 kts | 281° |
| 2026-05-05 20:17 | 52.71197 | -21.07369 | 38237 ft | 471 kts | 281° |
| 2026-05-05 20:18 | 52.72149 | -21.18001 | 38240 ft | 471 kts | 281° |
| 2026-05-05 20:18 | 52.73096 | -21.28691 | 38238 ft | 471 kts | 281° |
| 2026-05-05 20:19 | 52.74034 | -21.39400 | 38237 ft | 471 kts | 281° |
| 2026-05-05 20:19 | 52.74963 | -21.50115 | 38238 ft | 471 kts | 281° |
| 2026-05-05 20:20 | 52.75882 | -21.60827 | 38242 ft | 472 kts | 280° |
| 2026-05-05 20:20 | 52.76785 | -21.71470 | 38243 ft | 471 kts | 281° |
| 2026-05-05 20:21 | 52.77685 | -21.82194 | 38244 ft | 471 kts | 281° |
| 2026-05-05 20:21 | 52.78575 | -21.92921 | 38248 ft | 472 kts | 281° |
| 2026-05-05 20:22 | 52.79455 | -22.03656 | 38251 ft | 472 kts | 280° |
| 2026-05-05 20:22 | 52.80321 | -22.14329 | 38247 ft | 472 kts | 280° |
| 2026-05-05 20:23 | 52.81182 | -22.25068 | 38229 ft | 471 kts | 281° |
| 2026-05-05 20:23 | 52.82032 | -22.35794 | 38232 ft | 471 kts | 280° |
| 2026-05-05 20:24 | 52.82872 | -22.46529 | 38233 ft | 471 kts | 280° |
| 2026-05-05 20:24 | 52.83698 | -22.57196 | 38238 ft | 471 kts | 280° |
| 2026-05-05 20:25 | 52.84518 | -22.67932 | 38244 ft | 470 kts | 280° |
| 2026-05-05 20:25 | 52.85329 | -22.78662 | 38214 ft | 470 kts | 280° |
| 2026-05-05 20:26 | 52.86128 | -22.89379 | 38241 ft | 469 kts | 280° |
| 2026-05-05 20:26 | 52.86913 | -23.00028 | 38242 ft | 469 kts | 280° |
| 2026-05-05 20:27 | 52.87692 | -23.10748 | 38244 ft | 469 kts | 280° |
| 2026-05-05 20:27 | 52.88462 | -23.21469 | 38244 ft | 469 kts | 280° |
| 2026-05-05 20:28 | 52.89223 | -23.32200 | 38244 ft | 469 kts | 280° |
| 2026-05-05 20:28 | 52.89972 | -23.42915 | 38240 ft | 466 kts | 280° |
| 2026-05-05 20:29 | 52.90702 | -23.53490 | 38245 ft | 464 kts | 280° |
| 2026-05-05 20:29 | 52.91425 | -23.64102 | 38241 ft | 464 kts | 280° |
| 2026-05-05 20:30 | 52.92140 | -23.74722 | 38243 ft | 464 kts | 279° |
| 2026-05-05 20:30 | 52.92839 | -23.85273 | 38244 ft | 464 kts | 279° |
| 2026-05-05 20:31 | 52.93534 | -23.95901 | 38218 ft | 464 kts | 279° |
| 2026-05-05 20:31 | 52.94217 | -24.06495 | 38256 ft | 462 kts | 279° |
| 2026-05-05 20:32 | 52.94891 | -24.17090 | 38253 ft | 462 kts | 279° |
| 2026-05-05 20:32 | 52.95551 | -24.27625 | 38257 ft | 462 kts | 279° |
| 2026-05-05 20:33 | 52.96207 | -24.38238 | 38256 ft | 462 kts | 279° |
| 2026-05-05 20:33 | 52.96852 | -24.48839 | 38253 ft | 462 kts | 279° |
| 2026-05-05 20:34 | 52.97486 | -24.59425 | 38254 ft | 461 kts | 279° |
| 2026-05-05 20:34 | 52.98107 | -24.69933 | 38254 ft | 460 kts | 279° |
| 2026-05-05 20:35 | 52.98722 | -24.80510 | 38253 ft | 460 kts | 279° |
| 2026-05-05 20:35 | 52.99328 | -24.91091 | 38258 ft | 461 kts | 279° |
| 2026-05-05 20:36 | 52.99924 | -25.01673 | 38255 ft | 461 kts | 278° |
| 2026-05-05 20:36 | 53.00507 | -25.12203 | 38262 ft | 461 kts | 278° |
| 2026-05-05 20:37 | 53.01085 | -25.22788 | 38258 ft | 461 kts | 278° |
| 2026-05-05 20:37 | 53.01653 | -25.33389 | 38258 ft | 461 kts | 278° |
| 2026-05-05 20:38 | 53.02213 | -25.43998 | 38257 ft | 461 kts | 278° |
| 2026-05-05 20:38 | 53.02763 | -25.54607 | 38258 ft | 461 kts | 278° |
| 2026-05-05 20:39 | 53.03300 | -25.65155 | 38261 ft | 461 kts | 278° |
| 2026-05-05 20:39 | 53.03832 | -25.75781 | 38256 ft | 461 kts | 277° |
| 2026-05-05 20:40 | 53.04354 | -25.86426 | 38253 ft | 462 kts | 277° |
| 2026-05-05 20:40 | 53.04868 | -25.97077 | 38253 ft | 462 kts | 277° |
| 2026-05-05 20:41 | 53.05369 | -26.07665 | 38256 ft | 463 kts | 277° |
| 2026-05-05 20:41 | 53.05864 | -26.18324 | 38260 ft | 463 kts | 277° |
| 2026-05-05 20:42 | 53.06349 | -26.28993 | 38258 ft | 463 kts | 277° |
| 2026-05-05 20:42 | 53.06825 | -26.39654 | 38258 ft | 463 kts | 276° |
| 2026-05-05 20:43 | 53.07288 | -26.50261 | 38259 ft | 463 kts | 276° |
| 2026-05-05 20:43 | 53.07745 | -26.60930 | 38259 ft | 463 kts | 276° |
| 2026-05-05 20:44 | 53.08193 | -26.71612 | 38256 ft | 463 kts | 276° |
| 2026-05-05 20:44 | 53.08631 | -26.82302 | 38260 ft | 463 kts | 276° |
| 2026-05-05 20:45 | 53.09270 | -26.98331 | 38261 ft | 463 kts | 276° |
| 2026-05-05 20:45 | 53.09681 | -27.08940 | 38261 ft | 463 kts | 276° |
| 2026-05-05 20:46 | 53.10086 | -27.19634 | 38258 ft | 463 kts | 276° |
| 2026-05-05 20:46 | 53.10481 | -27.30332 | 38259 ft | 463 kts | 276° |
| 2026-05-05 20:47 | 53.10867 | -27.41033 | 38263 ft | 463 kts | 275° |
| 2026-05-05 20:47 | 53.11240 | -27.51669 | 38237 ft | 463 kts | 275° |
| 2026-05-05 20:48 | 53.11606 | -27.62370 | 38252 ft | 463 kts | 275° |
| 2026-05-05 20:48 | 53.11963 | -27.73058 | 38252 ft | 463 kts | 275° |
| 2026-05-05 20:49 | 53.12310 | -27.83758 | 38256 ft | 463 kts | 275° |
| 2026-05-05 20:49 | 53.12645 | -27.94386 | 38256 ft | 463 kts | 275° |
| 2026-05-05 20:50 | 53.12972 | -28.05076 | 38251 ft | 463 kts | 275° |
| 2026-05-05 20:50 | 53.13291 | -28.15778 | 38248 ft | 463 kts | 274° |
| 2026-05-05 20:51 | 53.13599 | -28.26492 | 38252 ft | 463 kts | 274° |
| 2026-05-05 20:51 | 53.13897 | -28.37125 | 38253 ft | 464 kts | 274° |
| 2026-05-05 20:52 | 53.14186 | -28.47848 | 38250 ft | 464 kts | 274° |
| 2026-05-05 20:52 | 53.14467 | -28.58581 | 38250 ft | 464 kts | 273° |
| 2026-05-05 20:53 | 53.14738 | -28.69316 | 38253 ft | 464 kts | 273° |
| 2026-05-05 20:53 | 53.14997 | -28.79965 | 38236 ft | 463 kts | 272° |
| 2026-05-05 20:54 | 53.15248 | -28.90670 | 38231 ft | 463 kts | 272° |
| 2026-05-05 20:54 | 53.15489 | -29.01383 | 38233 ft | 463 kts | 272° |
| 2026-05-05 20:55 | 53.15721 | -29.12100 | 38234 ft | 463 kts | 272° |
| 2026-05-05 20:55 | 53.15943 | -29.22817 | 38242 ft | 463 kts | 272° |
| 2026-05-05 20:56 | 53.16155 | -29.33466 | 38226 ft | 464 kts | 271° |
| 2026-05-05 20:56 | 53.16358 | -29.44242 | 38220 ft | 465 kts | 271° |
| 2026-05-05 20:57 | 53.16554 | -29.55031 | 38228 ft | 466 kts | 271° |
| 2026-05-05 20:57 | 53.16738 | -29.65804 | 38229 ft | 465 kts | 271° |
| 2026-05-05 20:58 | 53.16913 | -29.76591 | 38221 ft | 465 kts | 271° |
| 2026-05-05 20:58 | 53.17077 | -29.87304 | 38224 ft | 466 kts | 271° |
| 2026-05-05 20:59 | 53.17233 | -29.98120 | 38228 ft | 468 kts | 270° |
| 2026-05-05 20:59 | 53.17380 | -30.08949 | 38217 ft | 468 kts | 270° |
| 2026-05-05 21:00 | 53.17516 | -30.19779 | 38223 ft | 467 kts | 270° |
| 2026-05-05 21:00 | 53.17642 | -30.30550 | 38216 ft | 469 kts | 270° |
| 2026-05-05 21:01 | 53.17760 | -30.41425 | 38230 ft | 470 kts | 270° |
| 2026-05-05 21:01 | 53.17868 | -30.52321 | 38212 ft | 470 kts | 270° |
| 2026-05-05 21:02 | 53.17965 | -30.63230 | 38211 ft | 471 kts | 270° |
| 2026-05-05 21:02 | 53.18054 | -30.74149 | 38210 ft | 471 kts | 269° |
| 2026-05-05 21:03 | 53.18131 | -30.84997 | 38212 ft | 471 kts | 269° |
| 2026-05-05 21:03 | 53.18199 | -30.95914 | 38204 ft | 471 kts | 269° |
| 2026-05-05 21:04 | 53.18257 | -31.06822 | 38204 ft | 471 kts | 269° |
| 2026-05-05 21:04 | 53.18305 | -31.17736 | 38194 ft | 470 kts | 269° |
| 2026-05-05 21:05 | 53.18343 | -31.28558 | 38191 ft | 472 kts | 269° |
| 2026-05-05 21:05 | 53.18371 | -31.39500 | 38189 ft | 472 kts | 269° |
| 2026-05-05 21:06 | 53.18389 | -31.50441 | 38193 ft | 472 kts | 269° |
| 2026-05-05 21:06 | 53.18393 | -31.61381 | 38190 ft | 472 kts | 268° |
| 2026-05-05 21:07 | 53.18399 | -31.72323 | 38185 ft | 473 kts | 268° |
| 2026-05-05 21:07 | 53.18385 | -31.83245 | 38178 ft | 474 kts | 268° |
| 2026-05-05 21:08 | 53.18362 | -31.94231 | 38181 ft | 474 kts | 268° |
| 2026-05-05 21:08 | 53.18331 | -32.05206 | 38182 ft | 474 kts | 268° |
| 2026-05-05 21:09 | 53.18289 | -32.16192 | 38170 ft | 474 kts | 268° |
| 2026-05-05 21:09 | 53.18235 | -32.27118 | 38170 ft | 476 kts | 268° |
| 2026-05-05 21:10 | 53.18174 | -32.38159 | 38169 ft | 476 kts | 268° |
| 2026-05-05 21:10 | 53.18101 | -32.49196 | 38163 ft | 476 kts | 268° |
| 2026-05-05 21:11 | 53.18018 | -32.60230 | 38162 ft | 476 kts | 268° |
| 2026-05-05 21:11 | 53.17925 | -32.71272 | 38168 ft | 476 kts | 267° |
| 2026-05-05 21:12 | 53.17822 | -32.82227 | 38163 ft | 476 kts | 267° |
| 2026-05-05 21:12 | 53.17708 | -32.93266 | 38163 ft | 476 kts | 267° |
| 2026-05-05 21:13 | 53.17585 | -33.04301 | 38155 ft | 476 kts | 267° |
| 2026-05-05 21:13 | 53.17452 | -33.15263 | 38161 ft | 476 kts | 267° |
| 2026-05-05 21:14 | 53.17307 | -33.26319 | 38151 ft | 478 kts | 267° |
| 2026-05-05 21:14 | 53.17153 | -33.37408 | 38151 ft | 478 kts | 266° |
| 2026-05-05 21:15 | 53.16987 | -33.48493 | 38153 ft | 479 kts | 266° |
| 2026-05-05 21:15 | 53.16813 | -33.59512 | 38151 ft | 479 kts | 266° |
| 2026-05-05 21:16 | 53.16627 | -33.70598 | 38155 ft | 479 kts | 266° |
| 2026-05-05 21:16 | 53.16430 | -33.81690 | 38155 ft | 479 kts | 266° |
| 2026-05-05 21:17 | 53.16224 | -33.92758 | 38149 ft | 477 kts | 266° |
| 2026-05-05 21:17 | 53.16010 | -34.03710 | 38145 ft | 475 kts | 266° |
| 2026-05-05 21:18 | 53.15785 | -34.14711 | 38154 ft | 474 kts | 266° |
| 2026-05-05 21:18 | 53.15549 | -34.25711 | 38148 ft | 476 kts | 266° |
| 2026-05-05 21:19 | 53.15303 | -34.36733 | 38146 ft | 477 kts | 266° |
| 2026-05-05 21:19 | 53.15049 | -34.47699 | 38151 ft | 477 kts | 266° |
| 2026-05-05 21:20 | 53.14782 | -34.58736 | 38145 ft | 477 kts | 266° |
| 2026-05-05 21:20 | 53.14505 | -34.69767 | 38161 ft | 477 kts | 265° |
| 2026-05-05 21:21 | 53.14219 | -34.80788 | 38164 ft | 476 kts | 265° |
| 2026-05-05 21:21 | 53.13917 | -34.91729 | 38147 ft | 476 kts | 265° |
| 2026-05-05 21:22 | 53.13619 | -35.02753 | 38156 ft | 476 kts | 265° |
| 2026-05-05 21:22 | 53.13298 | -35.13764 | 38167 ft | 477 kts | 265° |
| 2026-05-05 21:23 | 53.12971 | -35.24823 | 38167 ft | 478 kts | 265° |
| 2026-05-05 21:23 | 53.12631 | -35.35888 | 38162 ft | 479 kts | 265° |
| 2026-05-05 21:24 | 53.12283 | -35.46900 | 38170 ft | 479 kts | 265° |
| 2026-05-05 21:24 | 53.11923 | -35.57976 | 38166 ft | 479 kts | 265° |
| 2026-05-05 21:25 | 53.11552 | -35.69047 | 38171 ft | 479 kts | 265° |
| 2026-05-05 21:25 | 53.11172 | -35.80121 | 38171 ft | 479 kts | 264° |
| 2026-05-05 21:26 | 53.10783 | -35.91130 | 38174 ft | 480 kts | 265° |
| 2026-05-05 21:26 | 53.10382 | -36.02189 | 38165 ft | 479 kts | 264° |
| 2026-05-05 21:27 | 53.09970 | -36.13260 | 38158 ft | 479 kts | 264° |
| 2026-05-05 21:27 | 53.09549 | -36.24314 | 38176 ft | 479 kts | 264° |
| 2026-05-05 21:28 | 53.09117 | -36.35377 | 38172 ft | 479 kts | 264° |
| 2026-05-05 21:28 | 53.08678 | -36.46357 | 38176 ft | 479 kts | 264° |
| 2026-05-05 21:29 | 53.08226 | -36.57406 | 38167 ft | 478 kts | 264° |
| 2026-05-05 21:29 | 53.07764 | -36.68457 | 38163 ft | 479 kts | 264° |
| 2026-05-05 21:30 | 53.07292 | -36.79485 | 38160 ft | 479 kts | 264° |
| 2026-05-05 21:30 | 53.06812 | -36.90451 | 38166 ft | 479 kts | 264° |
| 2026-05-05 21:31 | 53.06320 | -37.01484 | 38169 ft | 479 kts | 264° |
| 2026-05-05 21:31 | 53.05815 | -37.12549 | 38167 ft | 481 kts | 263° |
| 2026-05-05 21:32 | 53.05300 | -37.23623 | 38169 ft | 480 kts | 263° |
| 2026-05-05 21:32 | 53.04775 | -37.34688 | 38171 ft | 480 kts | 263° |
| 2026-05-05 21:33 | 53.04331 | -37.43887 | 38167 ft | 480 kts | 263° |
| 2026-05-05 21:33 | 53.03698 | -37.56738 | 38166 ft | 480 kts | 263° |
| 2026-05-05 21:34 | 53.03141 | -37.67798 | 38181 ft | 480 kts | 263° |
| 2026-05-05 21:34 | 53.02576 | -37.78847 | 38162 ft | 480 kts | 263° |
| 2026-05-05 21:35 | 53.02004 | -37.89808 | 38155 ft | 479 kts | 263° |
| 2026-05-05 21:35 | 53.01418 | -38.00846 | 38161 ft | 479 kts | 263° |
| 2026-05-05 21:36 | 53.00921 | -38.10043 | 38158 ft | 483 kts | 263° |
| 2026-05-05 21:36 | 53.00314 | -38.21133 | 38160 ft | 482 kts | 263° |
| 2026-05-05 21:37 | 52.99696 | -38.32210 | 38147 ft | 482 kts | 262° |
| 2026-05-05 21:37 | 52.99069 | -38.43273 | 38146 ft | 481 kts | 262° |
| 2026-05-05 21:38 | 52.98436 | -38.54256 | 38142 ft | 481 kts | 262° |
| 2026-05-05 21:38 | 52.97788 | -38.65302 | 38137 ft | 481 kts | 262° |
| 2026-05-05 21:39 | 52.97131 | -38.76348 | 38138 ft | 481 kts | 262° |
| 2026-05-05 21:39 | 52.96463 | -38.87388 | 38139 ft | 481 kts | 262° |
| 2026-05-05 21:40 | 52.95789 | -38.98356 | 38151 ft | 481 kts | 262° |
| 2026-05-05 21:40 | 52.95098 | -39.09439 | 38149 ft | 484 kts | 262° |
| 2026-05-05 21:41 | 52.94397 | -39.20524 | 38141 ft | 484 kts | 262° |
| 2026-05-05 21:41 | 52.93685 | -39.31600 | 38138 ft | 484 kts | 262° |
| 2026-05-05 21:42 | 52.92966 | -39.42620 | 38132 ft | 484 kts | 261° |
| 2026-05-05 21:42 | 52.92234 | -39.53689 | 38134 ft | 483 kts | 261° |
| 2026-05-05 21:43 | 52.91491 | -39.64745 | 38131 ft | 483 kts | 261° |
| 2026-05-05 21:43 | 52.90740 | -39.75791 | 38125 ft | 482 kts | 261° |
| 2026-05-05 21:44 | 52.89977 | -39.86839 | 38127 ft | 482 kts | 261° |
| 2026-05-05 21:44 | 52.89210 | -39.97806 | 38119 ft | 484 kts | 261° |
| 2026-05-05 21:45 | 52.88424 | -40.08884 | 38114 ft | 484 kts | 261° |
| 2026-05-05 21:45 | 52.87629 | -40.19950 | 38109 ft | 484 kts | 261° |
| 2026-05-05 21:46 | 52.86823 | -40.31016 | 38109 ft | 484 kts | 261° |
| 2026-05-05 21:46 | 52.86013 | -40.41995 | 38111 ft | 484 kts | 261° |
| 2026-05-05 21:47 | 52.85188 | -40.53034 | 38099 ft | 484 kts | 261° |
| 2026-05-05 21:47 | 52.84351 | -40.64090 | 38106 ft | 484 kts | 261° |
| 2026-05-05 21:48 | 52.83505 | -40.75126 | 38099 ft | 484 kts | 261° |
| 2026-05-05 21:48 | 52.82654 | -40.86094 | 38097 ft | 484 kts | 260° |
| 2026-05-05 21:49 | 52.81786 | -40.97141 | 38092 ft | 485 kts | 260° |
| 2026-05-05 21:49 | 52.80907 | -41.08195 | 38093 ft | 485 kts | 260° |
| 2026-05-05 21:50 | 52.80017 | -41.19254 | 38092 ft | 486 kts | 260° |
| 2026-05-05 21:50 | 52.79125 | -41.30208 | 38084 ft | 482 kts | 260° |
| 2026-05-05 21:51 | 52.78222 | -41.41160 | 38074 ft | 480 kts | 260° |
| 2026-05-05 21:51 | 52.77311 | -41.52092 | 38072 ft | 480 kts | 259° |
| 2026-05-05 21:52 | 52.75933 | -41.68398 | 38063 ft | 480 kts | 259° |
| 2026-05-05 21:53 | 52.74997 | -41.79307 | 38071 ft | 480 kts | 259° |
| 2026-05-05 21:53 | 52.74053 | -41.90204 | 38064 ft | 479 kts | 259° |
| 2026-05-05 21:54 | 52.73098 | -42.01092 | 38065 ft | 480 kts | 259° |
| 2026-05-05 21:54 | 52.72134 | -42.11974 | 38054 ft | 480 kts | 259° |
| 2026-05-05 21:55 | 52.71167 | -42.22788 | 38055 ft | 479 kts | 259° |
| 2026-05-05 21:55 | 52.70182 | -42.33661 | 38053 ft | 480 kts | 259° |
| 2026-05-05 21:56 | 52.69190 | -42.44507 | 38048 ft | 478 kts | 259° |
| 2026-05-05 21:56 | 52.68196 | -42.55274 | 38049 ft | 477 kts | 259° |
| 2026-05-05 21:57 | 52.67186 | -42.66089 | 38049 ft | 478 kts | 259° |
| 2026-05-05 21:57 | 52.66168 | -42.76888 | 38045 ft | 477 kts | 259° |
| 2026-05-05 21:58 | 52.65137 | -42.87702 | 38043 ft | 477 kts | 259° |
| 2026-05-05 21:58 | 52.64095 | -42.98534 | 38039 ft | 479 kts | 259° |
| 2026-05-05 21:59 | 52.63055 | -43.09245 | 38040 ft | 477 kts | 259° |
| 2026-05-05 21:59 | 52.61995 | -43.20048 | 38031 ft | 477 kts | 259° |
| 2026-05-05 22:00 | 52.60925 | -43.30839 | 38035 ft | 478 kts | 259° |
| 2026-05-05 22:00 | 52.59848 | -43.41602 | 38029 ft | 477 kts | 259° |
| 2026-05-05 22:01 | 52.58768 | -43.52306 | 38033 ft | 476 kts | 259° |
| 2026-05-05 22:01 | 52.57672 | -43.63050 | 38028 ft | 476 kts | 259° |
| 2026-05-05 22:02 | 52.56570 | -43.73760 | 38006 ft | 476 kts | 259° |
| 2026-05-05 22:02 | 52.55455 | -43.84505 | 38019 ft | 476 kts | 259° |
| 2026-05-05 22:03 | 52.54329 | -43.95240 | 38005 ft | 477 kts | 259° |
| 2026-05-05 22:03 | 52.53202 | -44.05890 | 37999 ft | 477 kts | 259° |
| 2026-05-05 22:04 | 52.52057 | -44.16627 | 38019 ft | 475 kts | 259° |
| 2026-05-05 22:04 | 52.50905 | -44.27325 | 38000 ft | 476 kts | 258° |
| 2026-05-05 22:05 | 52.49747 | -44.37988 | 37993 ft | 476 kts | 258° |
| 2026-05-05 22:05 | 52.48578 | -44.48651 | 37991 ft | 474 kts | 258° |
| 2026-05-05 22:06 | 52.47405 | -44.59266 | 38000 ft | 475 kts | 258° |
| 2026-05-05 22:06 | 52.46216 | -44.69928 | 37995 ft | 478 kts | 258° |
| 2026-05-05 22:07 | 52.45013 | -44.80619 | 38004 ft | 476 kts | 258° |
| 2026-05-05 22:07 | 52.43803 | -44.91287 | 37991 ft | 476 kts | 258° |
| 2026-05-05 22:08 | 52.42590 | -45.01890 | 37981 ft | 478 kts | 258° |
| 2026-05-05 22:08 | 52.41361 | -45.12548 | 37980 ft | 476 kts | 258° |
| 2026-05-05 22:09 | 52.40119 | -45.23225 | 37997 ft | 476 kts | 258° |
| 2026-05-05 22:09 | 52.38872 | -45.33854 | 37984 ft | 475 kts | 258° |
| 2026-05-05 22:10 | 52.37618 | -45.44460 | 37972 ft | 475 kts | 258° |
| 2026-05-05 22:10 | 52.36361 | -45.55008 | 37986 ft | 474 kts | 258° |
| 2026-05-05 22:11 | 52.35088 | -45.65602 | 37974 ft | 476 kts | 258° |
| 2026-05-05 22:11 | 52.33804 | -45.76206 | 37967 ft | 475 kts | 258° |
| 2026-05-05 22:12 | 52.32512 | -45.86787 | 37959 ft | 474 kts | 258° |
| 2026-05-05 22:12 | 52.31221 | -45.97275 | 37961 ft | 474 kts | 258° |
| 2026-05-05 22:13 | 52.29911 | -46.07839 | 37961 ft | 475 kts | 257° |
| 2026-05-05 22:13 | 52.28593 | -46.18383 | 37968 ft | 474 kts | 257° |
| 2026-05-05 22:14 | 52.27266 | -46.28922 | 37958 ft | 473 kts | 257° |
| 2026-05-05 22:14 | 52.25936 | -46.39396 | 37964 ft | 474 kts | 258° |
| 2026-05-05 22:15 | 52.24592 | -46.49916 | 37950 ft | 474 kts | 258° |
| 2026-05-05 22:15 | 52.23238 | -46.60423 | 37942 ft | 473 kts | 257° |
| 2026-05-05 22:16 | 52.21871 | -46.70956 | 37950 ft | 474 kts | 257° |
| 2026-05-05 22:16 | 52.20497 | -46.81456 | 37954 ft | 475 kts | 257° |
| 2026-05-05 22:17 | 52.19123 | -46.91885 | 37939 ft | 473 kts | 257° |
| 2026-05-05 22:17 | 52.17734 | -47.02355 | 37940 ft | 472 kts | 257° |
| 2026-05-05 22:18 | 52.16335 | -47.12819 | 37936 ft | 473 kts | 257° |
| 2026-05-05 22:18 | 52.14937 | -47.23201 | 37930 ft | 473 kts | 257° |
| 2026-05-05 22:19 | 52.13520 | -47.33654 | 37928 ft | 472 kts | 257° |
| 2026-05-05 22:19 | 52.12092 | -47.44110 | 37933 ft | 473 kts | 257° |
| 2026-05-05 22:20 | 52.10657 | -47.54537 | 37921 ft | 472 kts | 257° |
| 2026-05-05 22:20 | 52.09217 | -47.64935 | 37918 ft | 471 kts | 257° |
| 2026-05-05 22:21 | 52.07778 | -47.75255 | 37918 ft | 471 kts | 257° |
| 2026-05-05 22:21 | 52.06318 | -47.85645 | 37914 ft | 472 kts | 257° |
| 2026-05-05 22:22 | 52.04849 | -47.96033 | 37908 ft | 472 kts | 257° |
| 2026-05-05 22:22 | 52.03371 | -48.06413 | 37900 ft | 471 kts | 257° |
| 2026-05-05 22:23 | 52.01899 | -48.16683 | 37903 ft | 470 kts | 257° |
| 2026-05-05 22:23 | 52.00406 | -48.27025 | 37915 ft | 471 kts | 257° |
| 2026-05-05 22:24 | 51.98905 | -48.37356 | 37906 ft | 471 kts | 257° |
| 2026-05-05 22:24 | 51.97393 | -48.47691 | 37906 ft | 470 kts | 257° |
| 2026-05-05 22:25 | 51.95883 | -48.57950 | 37902 ft | 471 kts | 257° |
| 2026-05-05 22:25 | 51.94353 | -48.68267 | 37899 ft | 472 kts | 257° |
| 2026-05-05 22:26 | 51.92816 | -48.78571 | 37901 ft | 470 kts | 257° |
| 2026-05-05 22:26 | 51.91271 | -48.88861 | 37899 ft | 469 kts | 257° |
| 2026-05-05 22:27 | 51.89729 | -48.99063 | 37894 ft | 470 kts | 257° |
| 2026-05-05 22:27 | 51.88166 | -49.09337 | 37894 ft | 471 kts | 256° |
| 2026-05-05 22:28 | 51.86593 | -49.19612 | 37899 ft | 470 kts | 257° |
| 2026-05-05 22:28 | 51.85010 | -49.29890 | 37899 ft | 470 kts | 257° |
| 2026-05-05 22:29 | 51.83429 | -49.40080 | 37889 ft | 471 kts | 256° |
| 2026-05-05 22:29 | 51.81829 | -49.50336 | 37898 ft | 471 kts | 256° |
| 2026-05-05 22:30 | 51.80220 | -49.60585 | 37891 ft | 471 kts | 256° |
| 2026-05-05 22:30 | 51.78602 | -49.70823 | 37888 ft | 469 kts | 256° |
| 2026-05-05 22:31 | 51.76996 | -49.80928 | 37879 ft | 467 kts | 256° |
| 2026-05-05 22:31 | 51.75372 | -49.91086 | 37877 ft | 467 kts | 256° |
| 2026-05-05 22:32 | 51.73739 | -50.01233 | 37882 ft | 467 kts | 256° |
| 2026-05-05 22:32 | 51.72098 | -50.11369 | 37886 ft | 467 kts | 256° |
| 2026-05-05 22:33 | 51.70459 | -50.21433 | 37890 ft | 467 kts | 256° |
| 2026-05-05 22:33 | 51.68799 | -50.31566 | 37893 ft | 467 kts | 256° |
| 2026-05-05 22:34 | 51.67131 | -50.41683 | 37876 ft | 467 kts | 256° |
| 2026-05-05 22:34 | 51.65454 | -50.51800 | 37889 ft | 467 kts | 256° |
| 2026-05-05 22:35 | 51.63779 | -50.61843 | 37883 ft | 468 kts | 256° |
| 2026-05-05 22:35 | 51.62085 | -50.71938 | 37881 ft | 467 kts | 256° |
| 2026-05-05 22:36 | 51.60384 | -50.82014 | 37867 ft | 465 kts | 256° |
| 2026-05-05 22:36 | 51.58683 | -50.92041 | 37882 ft | 464 kts | 256° |
| 2026-05-05 22:37 | 51.56989 | -51.01962 | 37869 ft | 463 kts | 256° |
| 2026-05-05 22:37 | 51.55276 | -51.11939 | 37867 ft | 463 kts | 256° |
| 2026-05-05 22:38 | 51.53554 | -51.21912 | 37866 ft | 463 kts | 256° |
| 2026-05-05 22:38 | 51.51823 | -51.31883 | 37880 ft | 462 kts | 256° |
| 2026-05-05 22:39 | 51.50093 | -51.41793 | 37882 ft | 461 kts | 256° |
| 2026-05-05 22:39 | 51.48367 | -51.51623 | 37877 ft | 461 kts | 255° |
| 2026-05-05 22:40 | 51.46622 | -51.61505 | 37879 ft | 461 kts | 255° |
| 2026-05-05 22:40 | 51.44868 | -51.71385 | 37880 ft | 461 kts | 255° |
| 2026-05-05 22:41 | 51.43103 | -51.81274 | 37852 ft | 462 kts | 255° |
| 2026-05-05 22:41 | 51.41335 | -51.91123 | 37873 ft | 463 kts | 255° |
| 2026-05-05 22:42 | 51.39548 | -52.01025 | 37876 ft | 463 kts | 255° |
| 2026-05-05 22:42 | 51.37751 | -52.10932 | 37877 ft | 463 kts | 255° |
| 2026-05-05 22:43 | 51.35943 | -52.20838 | 37875 ft | 463 kts | 255° |
| 2026-05-05 22:43 | 51.34141 | -52.30664 | 37878 ft | 464 kts | 255° |
| 2026-05-05 22:44 | 51.32318 | -52.40553 | 37876 ft | 464 kts | 255° |
| 2026-05-05 22:44 | 51.30482 | -52.50457 | 37874 ft | 464 kts | 255° |
| 2026-05-05 22:45 | 51.28639 | -52.60340 | 37870 ft | 464 kts | 255° |
| 2026-05-05 22:45 | 51.26791 | -52.70204 | 37884 ft | 462 kts | 256° |
| 2026-05-05 22:46 | 51.24961 | -52.79922 | 37873 ft | 461 kts | 256° |
| 2026-05-05 22:46 | 51.23105 | -52.89718 | 37875 ft | 459 kts | 256° |
| 2026-05-05 22:47 | 51.21259 | -52.99420 | 37876 ft | 457 kts | 256° |
| 2026-05-05 22:47 | 51.19404 | -53.09116 | 37878 ft | 457 kts | 256° |
| 2026-05-05 22:48 | 51.17556 | -53.18728 | 37869 ft | 457 kts | 256° |
| 2026-05-05 22:48 | 51.14924 | -53.27976 | 37895 ft | 463 kts | 242° |
| 2026-05-05 22:49 | 51.11618 | -53.36775 | 37878 ft | 462 kts | 243° |
| 2026-05-05 22:49 | 51.08327 | -53.45493 | 37881 ft | 458 kts | 243° |
| 2026-05-05 22:50 | 51.05042 | -53.54174 | 37883 ft | 458 kts | 243° |
| 2026-05-05 22:50 | 51.01774 | -53.62777 | 37893 ft | 458 kts | 242° |
| 2026-05-05 22:51 | 50.98485 | -53.71409 | 37872 ft | 456 kts | 242° |
| 2026-05-05 22:51 | 50.95190 | -53.80029 | 37880 ft | 457 kts | 242° |
| 2026-05-05 22:52 | 50.91889 | -53.88630 | 37879 ft | 457 kts | 242° |
| 2026-05-05 22:52 | 50.88602 | -53.97170 | 37879 ft | 457 kts | 242° |
| 2026-05-05 22:53 | 50.85288 | -54.05753 | 37880 ft | 457 kts | 242° |
| 2026-05-05 22:53 | 50.81965 | -54.14329 | 37885 ft | 457 kts | 242° |
| 2026-05-05 22:54 | 50.78636 | -54.22891 | 37879 ft | 457 kts | 242° |
| 2026-05-05 22:54 | 50.75323 | -54.31384 | 37879 ft | 457 kts | 242° |
| 2026-05-05 22:55 | 50.71985 | -54.39916 | 37886 ft | 457 kts | 242° |
| 2026-05-05 22:55 | 50.68633 | -54.48452 | 37885 ft | 457 kts | 242° |
| 2026-05-05 22:56 | 50.65284 | -54.56954 | 37885 ft | 456 kts | 241° |
| 2026-05-05 22:56 | 50.61935 | -54.65431 | 37885 ft | 456 kts | 241° |
| 2026-05-05 22:57 | 50.58599 | -54.73843 | 37882 ft | 456 kts | 241° |
| 2026-05-05 22:57 | 50.55236 | -54.82297 | 37883 ft | 456 kts | 241° |
| 2026-05-05 22:58 | 50.51867 | -54.90740 | 37897 ft | 456 kts | 241° |
| 2026-05-05 22:58 | 50.48490 | -54.99175 | 37894 ft | 456 kts | 241° |
| 2026-05-05 22:59 | 50.45129 | -55.07543 | 37894 ft | 456 kts | 241° |
| 2026-05-05 22:59 | 50.41740 | -55.15955 | 37897 ft | 456 kts | 241° |
| 2026-05-05 23:00 | 50.36649 | -55.28537 | 37871 ft | 454 kts | 241° |
| 2026-05-05 23:00 | 50.33266 | -55.36866 | 37870 ft | 453 kts | 241° |
| 2026-05-05 23:01 | 50.29903 | -55.45122 | 37867 ft | 453 kts | 241° |
| 2026-05-05 23:01 | 50.26509 | -55.53423 | 37871 ft | 453 kts | 241° |
| 2026-05-05 23:02 | 50.23109 | -55.61716 | 37851 ft | 453 kts | 241° |
| 2026-05-05 23:02 | 50.19727 | -55.69935 | 37871 ft | 449 kts | 241° |
| 2026-05-05 23:03 | 50.16374 | -55.78063 | 37870 ft | 449 kts | 241° |
| 2026-05-05 23:03 | 50.12988 | -55.86243 | 37870 ft | 449 kts | 241° |
| 2026-05-05 23:04 | 50.09602 | -55.94400 | 37869 ft | 449 kts | 241° |
| 2026-05-05 23:04 | 50.06211 | -56.02538 | 37891 ft | 446 kts | 241° |
| 2026-05-05 23:05 | 50.02849 | -56.10587 | 37883 ft | 446 kts | 241° |
| 2026-05-05 23:05 | 49.99459 | -56.18678 | 37885 ft | 447 kts | 241° |
| 2026-05-05 23:06 | 49.96061 | -56.26760 | 37861 ft | 446 kts | 241° |
| 2026-05-05 23:06 | 49.92668 | -56.34809 | 37867 ft | 445 kts | 241° |
| 2026-05-05 23:07 | 49.89296 | -56.42781 | 37871 ft | 445 kts | 241° |
| 2026-05-05 23:07 | 49.85894 | -56.50802 | 37873 ft | 445 kts | 241° |
| 2026-05-05 23:08 | 49.82489 | -56.58806 | 37873 ft | 445 kts | 241° |
| 2026-05-05 23:08 | 49.79077 | -56.66799 | 37871 ft | 445 kts | 241° |
| 2026-05-05 23:09 | 49.75696 | -56.74696 | 37868 ft | 441 kts | 241° |
| 2026-05-05 23:09 | 49.72312 | -56.82581 | 37855 ft | 439 kts | 241° |
| 2026-05-05 23:10 | 49.68928 | -56.90439 | 37858 ft | 439 kts | 241° |
| 2026-05-05 23:10 | 49.65543 | -56.98276 | 37860 ft | 439 kts | 241° |
| 2026-05-05 23:11 | 49.62176 | -57.06049 | 37858 ft | 438 kts | 241° |
| 2026-05-05 23:11 | 49.58803 | -57.13814 | 37866 ft | 435 kts | 241° |
| 2026-05-05 23:12 | 49.55436 | -57.21543 | 37859 ft | 434 kts | 241° |
| 2026-05-05 23:12 | 49.52085 | -57.29211 | 37866 ft | 434 kts | 241° |
| 2026-05-05 23:13 | 49.48708 | -57.36917 | 37859 ft | 435 kts | 241° |
| 2026-05-05 23:13 | 49.45329 | -57.44607 | 37870 ft | 433 kts | 240° |
| 2026-05-05 23:14 | 49.41957 | -57.52258 | 37879 ft | 432 kts | 240° |
| 2026-05-05 23:14 | 49.38578 | -57.59900 | 37879 ft | 432 kts | 240° |
| 2026-05-05 23:15 | 49.35222 | -57.67472 | 37877 ft | 432 kts | 240° |
| 2026-05-05 23:15 | 49.31839 | -57.75083 | 37860 ft | 432 kts | 240° |
| 2026-05-05 23:16 | 49.28454 | -57.82673 | 37867 ft | 431 kts | 240° |
| 2026-05-05 23:16 | 49.25069 | -57.90245 | 37867 ft | 432 kts | 239° |
| 2026-05-05 23:17 | 49.21691 | -57.97780 | 37866 ft | 431 kts | 239° |
| 2026-05-05 23:17 | 49.18292 | -58.05340 | 37870 ft | 432 kts | 239° |
| 2026-05-05 23:18 | 49.14890 | -58.12886 | 37880 ft | 432 kts | 239° |
| 2026-05-05 23:18 | 49.11479 | -58.20428 | 37880 ft | 432 kts | 239° |
| 2026-05-05 23:19 | 49.08090 | -58.27903 | 37869 ft | 432 kts | 239° |
| 2026-05-05 23:19 | 49.04665 | -58.35435 | 37876 ft | 432 kts | 239° |
| 2026-05-05 23:20 | 49.01239 | -58.42950 | 37872 ft | 432 kts | 239° |
| 2026-05-05 23:20 | 48.97800 | -58.50470 | 37874 ft | 432 kts | 239° |
| 2026-05-05 23:21 | 48.94384 | -58.57918 | 37877 ft | 432 kts | 239° |
| 2026-05-05 23:21 | 48.90944 | -58.65403 | 37882 ft | 432 kts | 239° |
| 2026-05-05 23:22 | 48.87491 | -58.72890 | 37869 ft | 432 kts | 239° |
| 2026-05-05 23:22 | 48.84055 | -58.80320 | 37877 ft | 428 kts | 239° |
| 2026-05-05 23:23 | 48.80630 | -58.87708 | 37876 ft | 428 kts | 238° |
| 2026-05-05 23:23 | 48.77228 | -58.95026 | 37875 ft | 428 kts | 238° |
| 2026-05-05 23:24 | 48.73790 | -59.02401 | 37875 ft | 428 kts | 238° |
| 2026-05-05 23:24 | 48.70353 | -59.09753 | 37876 ft | 427 kts | 238° |
| 2026-05-05 23:25 | 48.66914 | -59.17090 | 37872 ft | 427 kts | 238° |
| 2026-05-05 23:25 | 48.63497 | -59.24359 | 37864 ft | 427 kts | 238° |
| 2026-05-05 23:26 | 48.60051 | -59.31672 | 37867 ft | 427 kts | 238° |
| 2026-05-05 23:26 | 48.56599 | -59.38977 | 37867 ft | 427 kts | 238° |
| 2026-05-05 23:27 | 48.53150 | -59.46255 | 37866 ft | 425 kts | 238° |
| 2026-05-05 23:27 | 48.49726 | -59.53464 | 37870 ft | 425 kts | 238° |
| 2026-05-05 23:28 | 48.46275 | -59.60706 | 37869 ft | 425 kts | 238° |
| 2026-05-05 23:28 | 48.42817 | -59.67946 | 37864 ft | 426 kts | 238° |
| 2026-05-05 23:29 | 48.39357 | -59.75174 | 37876 ft | 426 kts | 238° |
| 2026-05-05 23:29 | 48.35898 | -59.82374 | 37878 ft | 427 kts | 238° |
| 2026-05-05 23:30 | 48.32417 | -59.89606 | 37881 ft | 427 kts | 238° |
| 2026-05-05 23:30 | 48.28932 | -59.96823 | 37881 ft | 427 kts | 238° |
| 2026-05-05 23:31 | 48.25444 | -60.04029 | 37883 ft | 427 kts | 238° |
| 2026-05-05 23:31 | 48.21953 | -60.11221 | 37865 ft | 426 kts | 238° |
| 2026-05-05 23:32 | 48.18484 | -60.18351 | 37867 ft | 426 kts | 238° |
| 2026-05-05 23:32 | 48.14985 | -60.25521 | 37867 ft | 426 kts | 238° |
| 2026-05-05 23:33 | 48.11486 | -60.32675 | 37866 ft | 426 kts | 237° |
| 2026-05-05 23:33 | 48.07981 | -60.39819 | 37857 ft | 425 kts | 238° |
| 2026-05-05 23:34 | 48.04522 | -60.46854 | 37860 ft | 422 kts | 238° |
| 2026-05-05 23:34 | 48.01043 | -60.53910 | 37857 ft | 421 kts | 238° |
| 2026-05-05 23:35 | 47.97560 | -60.60956 | 37844 ft | 422 kts | 237° |
| 2026-05-05 23:35 | 47.94076 | -60.67986 | 37825 ft | 422 kts | 237° |
| 2026-05-05 23:36 | 47.90611 | -60.74961 | 37855 ft | 421 kts | 237° |
| 2026-05-05 23:36 | 47.87121 | -60.81966 | 37861 ft | 421 kts | 237° |
| 2026-05-05 23:37 | 47.83625 | -60.88967 | 37857 ft | 421 kts | 237° |
| 2026-05-05 23:37 | 47.80125 | -60.95957 | 37859 ft | 421 kts | 237° |
| 2026-05-05 23:38 | 47.76646 | -61.02887 | 37841 ft | 419 kts | 237° |
| 2026-05-05 23:38 | 47.73166 | -61.09801 | 37838 ft | 417 kts | 237° |
| 2026-05-05 23:39 | 47.69687 | -61.16697 | 37838 ft | 417 kts | 237° |
| 2026-05-05 23:39 | 47.66207 | -61.23577 | 37838 ft | 417 kts | 237° |
| 2026-05-05 23:40 | 47.62743 | -61.30409 | 37823 ft | 417 kts | 237° |
| 2026-05-05 23:40 | 47.59232 | -61.37314 | 37835 ft | 419 kts | 237° |
| 2026-05-05 23:41 | 47.55717 | -61.44216 | 37841 ft | 420 kts | 237° |
| 2026-05-05 23:41 | 47.52191 | -61.51113 | 37806 ft | 420 kts | 237° |
| 2026-05-05 23:42 | 47.48687 | -61.57953 | 37838 ft | 420 kts | 237° |
| 2026-05-05 23:42 | 47.45153 | -61.64838 | 37802 ft | 421 kts | 237° |
| 2026-05-05 23:43 | 47.41612 | -61.71716 | 37826 ft | 420 kts | 236° |
| 2026-05-05 23:43 | 47.38067 | -61.78586 | 37805 ft | 421 kts | 236° |
| 2026-05-05 23:44 | 47.34541 | -61.85401 | 37807 ft | 421 kts | 236° |
| 2026-05-05 23:44 | 47.30988 | -61.92252 | 37856 ft | 421 kts | 236° |
| 2026-05-05 23:45 | 47.27424 | -61.99106 | 37820 ft | 422 kts | 236° |
| 2026-05-05 23:45 | 47.23857 | -62.05950 | 37870 ft | 421 kts | 236° |
| 2026-05-05 23:46 | 47.20325 | -62.12706 | 37832 ft | 417 kts | 236° |
| 2026-05-05 23:46 | 47.16796 | -62.19447 | 37801 ft | 416 kts | 236° |
| 2026-05-05 23:47 | 47.13264 | -62.26177 | 37854 ft | 417 kts | 236° |
| 2026-05-05 23:47 | 47.09714 | -62.32914 | 37840 ft | 417 kts | 236° |
| 2026-05-05 23:48 | 47.06167 | -62.39636 | 37840 ft | 417 kts | 236° |
| 2026-05-05 23:48 | 47.02634 | -62.46320 | 37817 ft | 417 kts | 235° |
| 2026-05-05 23:49 | 46.99069 | -62.53041 | 37851 ft | 418 kts | 235° |
| 2026-05-05 23:49 | 46.95520 | -62.59722 | 37850 ft | 418 kts | 235° |
| 2026-05-05 23:50 | 46.91941 | -62.66435 | 37847 ft | 418 kts | 235° |
| 2026-05-05 23:50 | 46.88384 | -62.73098 | 37843 ft | 418 kts | 235° |
| 2026-05-05 23:51 | 46.84795 | -62.79798 | 37828 ft | 419 kts | 235° |
| 2026-05-05 23:51 | 46.81193 | -62.86510 | 37831 ft | 420 kts | 235° |
| 2026-05-05 23:52 | 46.77585 | -62.93217 | 37829 ft | 420 kts | 235° |
| 2026-05-05 23:52 | 46.73997 | -62.99869 | 37832 ft | 420 kts | 235° |
| 2026-05-05 23:53 | 46.70383 | -63.06554 | 37813 ft | 420 kts | 235° |
| 2026-05-05 23:53 | 46.66756 | -63.13248 | 37837 ft | 420 kts | 234° |
| 2026-05-05 23:54 | 46.63148 | -63.19888 | 37833 ft | 417 kts | 234° |
| 2026-05-05 23:54 | 46.59571 | -63.26459 | 37832 ft | 417 kts | 234° |
| 2026-05-05 23:55 | 46.55963 | -63.33068 | 37833 ft | 417 kts | 234° |
| 2026-05-05 23:55 | 46.52352 | -63.39669 | 37825 ft | 419 kts | 234° |
| 2026-05-05 23:56 | 46.48725 | -63.46282 | 37825 ft | 419 kts | 234° |
| 2026-05-05 23:56 | 46.45093 | -63.52889 | 37812 ft | 419 kts | 234° |
| 2026-05-05 23:57 | 46.41480 | -63.59444 | 37821 ft | 419 kts | 234° |
| 2026-05-05 23:57 | 46.37840 | -63.66034 | 37812 ft | 420 kts | 234° |
| 2026-05-05 23:58 | 46.34181 | -63.72643 | 37816 ft | 421 kts | 234° |
| 2026-05-05 23:58 | 46.30539 | -63.79202 | 37820 ft | 421 kts | 233° |
| 2026-05-05 23:59 | 46.26875 | -63.85793 | 37819 ft | 421 kts | 233° |
| 2026-05-05 23:59 | 46.23201 | -63.92381 | 37822 ft | 421 kts | 233° |
| 2026-05-06 00:00 | 46.19515 | -63.98980 | 37829 ft | 422 kts | 233° |
| 2026-05-06 00:00 | 46.15818 | -64.05572 | 37797 ft | 423 kts | 233° |
| 2026-05-06 00:01 | 46.12122 | -64.12155 | 37815 ft | 421 kts | 233° |
| 2026-05-06 00:01 | 46.08454 | -64.18671 | 37812 ft | 421 kts | 233° |
| 2026-05-06 00:02 | 46.04744 | -64.25245 | 37798 ft | 423 kts | 233° |
| 2026-05-06 00:02 | 46.01030 | -64.31815 | 37819 ft | 423 kts | 233° |
| 2026-05-06 00:03 | 45.97305 | -64.38384 | 37818 ft | 423 kts | 233° |
| 2026-05-06 00:03 | 45.93607 | -64.44893 | 37791 ft | 424 kts | 233° |
| 2026-05-06 00:04 | 45.89875 | -64.51443 | 37826 ft | 423 kts | 233° |
| 2026-05-06 00:04 | 45.86143 | -64.57980 | 37800 ft | 424 kts | 233° |
| 2026-05-06 00:05 | 45.80560 | -64.67731 | 37839 ft | 423 kts | 233° |
| 2026-05-06 00:06 | 45.76816 | -64.74252 | 37840 ft | 425 kts | 232° |
| 2026-05-06 00:06 | 45.73049 | -64.80795 | 37841 ft | 425 kts | 232° |
| 2026-05-06 00:07 | 45.69284 | -64.87322 | 37850 ft | 426 kts | 232° |
| 2026-05-06 00:07 | 45.65540 | -64.93796 | 37862 ft | 426 kts | 232° |
| 2026-05-06 00:08 | 45.61759 | -65.00319 | 37852 ft | 426 kts | 232° |
| 2026-05-06 00:08 | 45.57964 | -65.06852 | 37880 ft | 427 kts | 232° |
| 2026-05-06 00:09 | 45.54182 | -65.13344 | 37867 ft | 424 kts | 232° |
| 2026-05-06 00:09 | 45.50435 | -65.19764 | 37877 ft | 424 kts | 232° |
| 2026-05-06 00:10 | 45.46661 | -65.26217 | 37874 ft | 424 kts | 232° |
| 2026-05-06 00:10 | 45.42878 | -65.32668 | 37881 ft | 424 kts | 232° |
| 2026-05-06 00:11 | 45.39089 | -65.39115 | 37885 ft | 424 kts | 232° |
| 2026-05-06 00:11 | 45.35297 | -65.45552 | 37881 ft | 425 kts | 232° |
| 2026-05-06 00:12 | 45.31528 | -65.51936 | 37888 ft | 425 kts | 232° |
| 2026-05-06 00:12 | 45.27718 | -65.58373 | 37890 ft | 426 kts | 232° |
| 2026-05-06 00:13 | 45.23903 | -65.64806 | 37891 ft | 426 kts | 232° |
| 2026-05-06 00:13 | 45.20080 | -65.71236 | 37893 ft | 426 kts | 232° |
| 2026-05-06 00:14 | 45.16312 | -65.77561 | 37883 ft | 426 kts | 232° |
| 2026-05-06 00:14 | 45.12471 | -65.83993 | 37900 ft | 428 kts | 232° |
| 2026-05-06 00:15 | 45.08624 | -65.90421 | 37906 ft | 428 kts | 232° |
| 2026-05-06 00:15 | 45.04773 | -65.96838 | 37910 ft | 428 kts | 232° |
| 2026-05-06 00:16 | 45.00940 | -66.03214 | 37898 ft | 428 kts | 232° |
| 2026-05-06 00:16 | 44.97089 | -66.09603 | 37923 ft | 430 kts | 232° |